Time;durP1;ratioP1;P1;durP2;ratioP2;P2;SDS_P1;SDS_P2;PMS_P1;PMS_P2;Temp;Humidity;BMP_temperature;BMP_pressure;BME280_temperature;BME280_humidity;BME280_pressure;Samples;Min_cycle;Max_cycle;Signal;HPM_P1;HPM_P2
2021/12/11 00:00:26;;;;;;;17.17;10.90;;;;;;;-0.53;100.00;95224.09;5089826;28;20095;-68
2021/12/11 00:03:03;;;;;;;6.65;5.43;;;;;;;-0.55;100.00;95228.50;5085539;28;20031;-69
2021/12/11 00:05:29;;;;;;;6.30;5.68;;;;;;;-0.59;100.00;95227.84;5090449;28;20625;-68
2021/12/11 00:07:55;;;;;;;8.90;6.18;;;;;;;-0.58;100.00;95232.09;5090758;28;20055;-68
2021/12/11 00:10:29;;;;;;;8.18;5.75;;;;;;;-0.65;100.00;95223.84;5090577;28;20491;-68
2021/12/11 00:13:00;;;;;;;8.48;6.20;;;;;;;-0.69;100.00;95243.03;5072533;28;20403;-68
2021/12/11 00:15:37;;;;;;;9.40;6.25;;;;;;;-0.68;100.00;95242.13;5090162;28;20036;-68
2021/12/11 00:18:06;;;;;;;9.52;5.90;;;;;;;-0.70;100.00;95241.38;5090373;28;20399;-68
2021/12/11 00:20:35;;;;;;;5.75;4.72;;;;;;;-0.67;100.00;95232.59;5090457;28;20028;-68
2021/12/11 00:23:02;;;;;;;5.70;5.07;;;;;;;-0.66;100.00;95237.69;5090408;28;20178;-68
2021/12/11 00:25:28;;;;;;;4.68;4.22;;;;;;;-0.66;100.00;95239.47;5090052;28;20464;-68
2021/12/11 00:28:05;;;;;;;5.53;4.63;;;;;;;-0.70;100.00;95251.72;5090436;28;20036;-68
2021/12/11 00:30:35;;;;;;;12.88;6.18;;;;;;;-0.70;100.00;95246.56;5090068;28;20495;-68
2021/12/11 00:33:13;;;;;;;10.57;4.90;;;;;;;-0.71;100.00;95244.88;5090234;28;20404;-68
2021/12/11 00:35:40;;;;;;;12.27;6.10;;;;;;;-0.72;100.00;95254.38;5088971;28;20580;-68
2021/12/11 00:38:14;;;;;;;11.85;9.65;;;;;;;-0.70;100.00;95256.91;5090086;28;20063;-69
2021/12/11 00:40:41;;;;;;;14.60;7.43;;;;;;;-0.55;100.00;95259.53;5090163;28;20115;-69
2021/12/11 00:43:11;;;;;;;11.20;5.95;;;;;;;-0.61;100.00;95264.13;5090156;28;20108;-68
2021/12/11 00:45:39;;;;;;;8.05;7.03;;;;;;;-0.63;100.00;95254.81;5090402;28;20051;-68
2021/12/11 00:48:12;;;;;;;10.27;6.93;;;;;;;-0.68;100.00;95262.81;5071394;28;20131;-68
2021/12/11 00:50:41;;;;;;;9.25;7.38;;;;;;;-0.70;100.00;95263.81;5089778;28;20032;-69
2021/12/11 00:53:10;;;;;;;7.55;6.10;;;;;;;-0.75;100.00;95272.66;5071784;28;20024;-68
2021/12/11 00:55:43;;;;;;;6.80;5.60;;;;;;;-0.76;100.00;95277.91;5089799;28;20045;-69
2021/12/11 00:58:15;;;;;;;4.38;3.92;;;;;;;-0.79;100.00;95280.63;5089663;28;20032;-69
2021/12/11 01:01:02;;;;;;;5.35;4.00;;;;;;;-0.80;100.00;95286.72;5090057;28;20078;-69
2021/12/11 01:03:31;;;;;;;4.95;3.53;;;;;;;-0.82;100.00;95294.59;5089166;28;20028;-69
2021/12/11 01:06:00;;;;;;;7.63;6.68;;;;;;;-0.83;100.00;95298.09;5088966;28;20032;-69
2021/12/11 01:08:25;;;;;;;8.90;6.03;;;;;;;-0.81;100.00;95295.41;5089324;28;20035;-69
2021/12/11 01:10:57;;;;;;;9.10;7.05;;;;;;;-0.76;100.00;95299.41;5089305;28;20332;-69
2021/12/11 01:13:27;;;;;;;10.60;6.03;;;;;;;-0.78;100.00;95303.00;5089453;28;20098;-69
2021/12/11 01:15:58;;;;;;;9.43;6.65;;;;;;;-0.79;100.00;95309.06;5089279;28;20074;-69
2021/12/11 01:18:35;;;;;;;7.28;6.15;;;;;;;-0.78;100.00;95303.00;5089216;28;20089;-69
2021/12/11 01:26:35;;;;;;;5.63;4.68;;;;;;;-0.83;100.00;95317.91;5089222;28;20853;-69
2021/12/11 01:29:01;;;;;;;6.68;5.00;;;;;;;-0.83;100.00;95321.34;5089339;28;20092;-69
2021/12/11 01:31:28;;;;;;;10.73;6.40;;;;;;;-0.81;100.00;95326.41;5088842;28;20067;-70
2021/12/11 01:33:55;;;;;;;8.52;6.47;;;;;;;-0.79;100.00;95328.03;5089018;28;20028;-69
2021/12/11 01:36:21;;;;;;;9.82;6.32;;;;;;;-0.76;100.00;95339.97;5070729;28;20082;-69
2021/12/11 01:38:47;;;;;;;10.93;5.82;;;;;;;-0.78;100.00;95341.75;5088667;28;20491;-69
2021/12/11 01:41:17;;;;;;;8.90;5.72;;;;;;;-0.80;100.00;95344.44;5070934;28;20027;-69
2021/12/11 01:43:47;;;;;;;9.35;5.70;;;;;;;-0.81;100.00;95349.69;5089153;28;20030;-69
2021/12/11 01:46:14;;;;;;;8.88;6.38;;;;;;;-0.81;100.00;95354.84;5088859;28;20107;-69
2021/12/11 01:48:44;;;;;;;10.25;6.55;;;;;;;-0.76;100.00;95358.06;5088739;28;20040;-69
2021/12/11 01:51:19;;;;;;;7.32;5.50;;;;;;;-0.80;100.00;95359.09;5088851;28;20035;-69
2021/12/11 01:53:57;;;;;;;6.35;4.93;;;;;;;-0.80;100.00;95359.97;5086537;28;20048;-69
2021/12/11 01:56:27;;;;;;;5.78;4.90;;;;;;;-0.78;100.00;95367.63;5088683;28;20040;-69
2021/12/11 01:59:04;;;;;;;7.10;4.72;;;;;;;-0.79;100.00;95364.22;5088499;28;20043;-70
2021/12/11 02:01:41;;;;;;;6.15;4.38;;;;;;;-0.79;100.00;95371.97;5088600;28;20036;-69
2021/12/11 02:04:08;;;;;;;7.30;5.03;;;;;;;-0.78;100.00;95375.38;5088175;28;20032;-69
2021/12/11 02:06:38;;;;;;;5.28;4.80;;;;;;;-0.80;100.00;95374.63;5088641;28;20036;-69
2021/12/11 02:09:25;;;;;;;7.47;5.38;;;;;;;-0.80;100.00;95385.81;5088677;28;20024;-69
2021/12/11 02:12:07;;;;;;;8.60;5.20;;;;;;;-0.79;100.00;95386.63;5085999;28;20035;-69
2021/12/11 02:14:39;;;;;;;7.28;4.47;;;;;;;-0.80;100.00;95393.56;5088344;28;20044;-69
2021/12/11 02:17:05;;;;;;;7.57;4.80;;;;;;;-0.78;100.00;95396.06;5088332;28;20141;-69
2021/12/11 02:19:36;;;;;;;6.78;4.30;;;;;;;-0.78;100.00;95396.91;5087358;28;20028;-70
2021/12/11 02:22:02;;;;;;;6.05;4.50;;;;;;;-0.77;100.00;95408.91;5088421;28;20399;-70
2021/12/11 02:24:42;;;;;;;5.32;4.82;;;;;;;-0.78;100.00;95406.41;5088148;28;20082;-70
2021/12/11 02:27:24;;;;;;;6.68;4.53;;;;;;;-0.79;100.00;95402.13;5087066;28;20051;-70
2021/12/11 02:30:16;;;;;;;8.82;5.25;;;;;;;-0.79;100.00;95402.13;5089394;28;20085;-70
2021/12/11 02:32:49;;;;;;;7.53;5.68;;;;;;;-0.80;100.00;95408.22;5037501;28;20040;-70
2021/12/11 02:35:21;;;;;;;7.03;5.03;;;;;;;-0.81;100.00;95410.00;5090141;28;20521;-70
2021/12/11 02:37:55;;;;;;;6.35;4.80;;;;;;;-0.82;100.00;95408.31;5090146;28;20035;-70
2021/12/11 02:40:32;;;;;;;10.60;5.18;;;;;;;-0.83;100.00;95400.63;5075084;28;20127;-71
2021/12/11 02:43:00;;;;;;;4.95;4.47;;;;;;;-0.82;100.00;95410.91;5069791;28;20060;-70
2021/12/11 02:45:25;;;;;;;8.73;4.60;;;;;;;-0.84;100.00;95409.31;5069660;28;20510;-70
2021/12/11 02:48:06;;;;;;;6.72;4.53;;;;;;;-0.89;100.00;95412.97;5069539;28;20080;-71
2021/12/11 02:50:49;;;;;;;6.28;4.47;;;;;;;-0.88;100.00;95412.06;5069699;28;20048;-70
2021/12/11 02:53:20;;;;;;;5.20;4.75;;;;;;;-0.90;100.00;95415.63;5069646;28;20462;-70
2021/12/11 02:56:08;;;;;;;4.85;4.40;;;;;;;-0.91;100.00;95419.97;5069955;28;20086;-70
2021/12/11 02:58:40;;;;;;;4.60;3.58;;;;;;;-0.91;100.00;95425.13;5069624;28;20032;-70
2021/12/11 03:01:27;;;;;;;7.93;4.28;;;;;;;-0.92;100.00;95420.88;5069479;28;20047;-70
2021/12/11 03:04:17;;;;;;;6.10;3.50;;;;;;;-0.93;100.00;95426.97;5069795;28;20043;-70
2021/12/11 03:06:46;;;;;;;7.30;4.28;;;;;;;-0.91;100.00;95426.88;5069404;28;20028;-70
2021/12/11 03:09:18;;;;;;;9.13;4.07;;;;;;;-0.91;100.00;95427.72;5069470;28;20036;-70
2021/12/11 03:11:45;;;;;;;7.47;3.90;;;;;;;-0.94;100.00;95430.47;5071722;28;20502;-71
2021/12/11 03:14:14;;;;;;;5.85;3.63;;;;;;;-0.97;100.00;95435.78;5088467;28;20039;-70
2021/12/11 03:16:41;;;;;;;7.28;3.90;;;;;;;-0.99;100.00;95441.94;5089211;28;20035;-70
2021/12/11 03:19:09;;;;;;;10.48;6.65;;;;;;;-1.01;100.00;95449.75;5089496;28;20117;-70
2021/12/11 03:21:36;;;;;;;15.95;7.97;;;;;;;-1.03;100.00;95444.69;5089344;28;20107;-70
2021/12/11 03:24:03;;;;;;;18.17;7.22;;;;;;;-0.99;100.00;95449.69;5089600;28;20482;-70
2021/12/11 03:26:28;;;;;;;10.88;5.75;;;;;;;-0.98;100.00;95451.38;5089486;28;20032;-70
2021/12/11 03:28:54;;;;;;;15.35;7.15;;;;;;;-0.95;100.00;95453.78;5092180;28;20609;-71
2021/12/11 03:31:19;;;;;;;11.32;8.38;;;;;;;-0.95;100.00;95448.63;5093165;28;20086;-71
2021/12/11 03:33:49;;;;;;;11.98;9.48;;;;;;;-0.94;100.00;95445.97;5093042;28;20043;-71
2021/12/11 03:36:17;;;;;;;15.85;8.68;;;;;;;-0.91;100.00;95461.31;5074791;28;20035;-71
2021/12/11 03:38:49;;;;;;;11.88;7.30;;;;;;;-0.95;100.00;95458.97;5092982;28;20115;-71
2021/12/11 03:41:15;;;;;;;10.32;6.57;;;;;;;-0.97;100.00;95460.78;5092954;28;20032;-71
2021/12/11 03:43:41;;;;;;;8.70;7.22;;;;;;;-0.97;100.00;95469.41;5106108;28;20042;-71
2021/12/11 03:46:09;;;;;;;10.80;6.60;;;;;;;-0.95;100.00;95475.31;5113118;28;20031;-71
2021/12/11 03:48:44;;;;;;;11.27;6.20;;;;;;;-0.93;100.00;95481.25;5093863;28;20048;-71
2021/12/11 03:51:13;;;;;;;9.15;6.20;;;;;;;-0.92;100.00;95480.34;5074458;28;20086;-71
2021/12/11 03:53:39;;;;;;;12.40;6.70;;;;;;;-0.90;100.00;95482.81;5092510;28;20032;-71
2021/12/11 03:56:10;;;;;;;8.48;6.18;;;;;;;-0.88;100.00;95488.78;5086048;28;20047;-71
2021/12/11 03:58:38;;;;;;;9.90;6.85;;;;;;;-0.84;100.00;95489.44;5092562;28;20028;-71
2021/12/11 04:01:12;;;;;;;8.07;6.40;;;;;;;-0.85;100.00;95495.53;5092670;28;20028;-70
2021/12/11 04:03:40;;;;;;;8.50;5.47;;;;;;;-0.88;100.00;95492.19;5092491;28;20372;-70
2021/12/11 04:06:10;;;;;;;10.63;4.90;;;;;;;-0.91;100.00;95486.31;5092349;28;20032;-71
2021/12/11 04:08:41;;;;;;;6.53;4.70;;;;;;;-0.91;100.00;95492.34;5092351;28;20054;-71
2021/12/11 04:11:13;;;;;;;6.55;4.40;;;;;;;-0.91;100.00;95491.50;5092252;28;20039;-71
2021/12/11 04:13:39;;;;;;;9.27;5.40;;;;;;;-0.90;100.00;95493.16;5092036;28;20060;-71
2021/12/11 04:16:07;;;;;;;8.05;4.40;;;;;;;-0.88;100.00;95492.19;5092351;28;20115;-71
2021/12/11 04:18:33;;;;;;;5.28;4.35;;;;;;;-0.87;100.00;95496.44;5092022;28;20119;-71
2021/12/11 04:20:58;;;;;;;4.80;4.35;;;;;;;-0.89;100.00;95487.94;5092060;28;20103;-71
2021/12/11 04:23:24;;;;;;;5.30;4.82;;;;;;;-0.92;100.00;95495.84;5092170;28;20043;-71
2021/12/11 04:25:51;;;;;;;9.13;5.15;;;;;;;-0.93;100.00;95498.50;5092089;28;20060;-70
2021/12/11 04:28:18;;;;;;;7.00;4.85;;;;;;;-0.92;100.00;95503.59;5091907;28;20554;-70
2021/12/11 04:30:47;;;;;;;8.95;6.20;;;;;;;-0.92;100.00;95501.00;5091792;28;20445;-70
2021/12/11 04:33:12;;;;;;;9.15;5.82;;;;;;;-0.90;100.00;95503.50;5091886;28;20032;-70
2021/12/11 04:35:39;;;;;;;8.80;5.80;;;;;;;-0.88;100.00;95505.09;5091044;28;20055;-70
2021/12/11 04:38:08;;;;;;;7.82;7.10;;;;;;;-0.90;100.00;95509.53;5091734;28;20077;-72
2021/12/11 04:40:37;;;;;;;8.40;6.05;;;;;;;-0.91;100.00;95515.59;5072287;28;20422;-71
2021/12/11 04:43:10;;;;;;;8.80;6.72;;;;;;;-0.90;100.00;95517.28;5091671;28;20028;-72
2021/12/11 04:45:38;;;;;;;8.10;6.85;;;;;;;-0.92;100.00;95521.69;5091682;28;20055;-72
2021/12/11 04:51:03;;;;;;;8.93;7.18;;;;;;;-0.90;100.00;95529.34;5056794;28;20438;-68
2021/12/11 05:07:02;;;;;;;8.50;6.80;;;;;;;-0.90;100.00;95545.72;5008861;28;20093;-72
2021/12/11 05:09:52;;;;;;;9.80;6.70;;;;;;;-0.92;100.00;95546.69;5055331;28;20040;-73
2021/12/11 05:12:32;;;;;;;6.65;5.88;;;;;;;-0.90;100.00;95555.19;5090887;28;20062;-74
2021/12/11 05:14:57;;;;;;;8.30;6.50;;;;;;;-0.91;100.00;95558.69;5091591;28;20040;-73
2021/12/11 05:17:24;;;;;;;6.72;6.05;;;;;;;-0.88;100.00;95558.56;5090990;28;20499;-73
2021/12/11 05:19:49;;;;;;;6.75;6.05;;;;;;;-0.87;100.00;95555.88;5091065;28;20036;-73
2021/12/11 05:22:16;;;;;;;8.40;5.90;;;;;;;-0.84;100.00;95559.22;5090910;28;20465;-73
2021/12/11 05:24:46;;;;;;;12.00;6.38;;;;;;;-0.83;100.00;95563.50;5072745;28;20392;-73
2021/12/11 05:27:12;;;;;;;8.02;5.40;;;;;;;-0.83;100.00;95563.50;5090833;28;20135;-73
2021/12/11 05:29:38;;;;;;;6.90;5.18;;;;;;;-0.83;100.00;95576.41;5090812;28;20522;-73
2021/12/11 05:32:06;;;;;;;5.38;4.47;;;;;;;-0.82;100.00;95578.09;5090842;28;20119;-73
2021/12/11 05:34:32;;;;;;;6.25;5.10;;;;;;;-0.82;100.00;95585.84;5090986;28;20467;-73
2021/12/11 05:36:58;;;;;;;7.60;5.05;;;;;;;-0.81;100.00;95585.78;5091034;28;20059;-73
2021/12/11 05:39:23;;;;;;;5.43;4.97;;;;;;;-0.80;100.00;95586.59;5090716;28;20036;-73
2021/12/11 05:41:50;;;;;;;6.68;5.45;;;;;;;-0.83;100.00;95582.44;5090772;28;20036;-73
2021/12/11 05:44:18;;;;;;;6.07;5.45;;;;;;;-0.84;100.00;95592.84;5090700;28;20032;-74
2021/12/11 05:46:44;;;;;;;6.07;5.35;;;;;;;-0.85;100.00;95601.50;5090650;28;20043;-74
2021/12/11 05:49:11;;;;;;;6.18;5.43;;;;;;;-0.87;100.00;95601.59;5090375;28;20044;-73
2021/12/11 05:51:39;;;;;;;6.22;5.50;;;;;;;-0.88;100.00;95597.34;5090125;28;20032;-74
2021/12/11 05:54:08;;;;;;;9.55;5.85;;;;;;;-0.87;100.00;95596.44;5090463;28;20036;-75
2021/12/11 05:56:36;;;;;;;6.18;5.00;;;;;;;-0.85;100.00;95599.78;5090668;28;20019;-74
2021/12/11 05:59:07;;;;;;;5.55;4.70;;;;;;;-0.83;100.00;95610.03;5090822;28;20024;-73
2021/12/11 06:01:39;;;;;;;8.48;5.88;;;;;;;-0.84;100.00;95610.94;5090452;28;20085;-73
2021/12/11 06:04:11;;;;;;;6.45;5.30;;;;;;;-0.86;100.00;95613.63;5090386;28;20028;-74
2021/12/11 06:06:37;;;;;;;7.38;5.97;;;;;;;-0.85;100.00;95615.28;5090359;28;20020;-74
2021/12/11 06:09:05;;;;;;;7.10;6.38;;;;;;;-0.84;100.00;95621.28;5090640;28;20039;-74
2021/12/11 06:11:30;;;;;;;6.55;5.95;;;;;;;-0.84;100.00;95621.28;5090273;28;20410;-74
2021/12/11 06:13:56;;;;;;;7.10;5.85;;;;;;;-0.83;100.00;95623.81;5090234;28;20036;-74
2021/12/11 06:16:21;;;;;;;7.00;6.30;;;;;;;-0.83;100.00;95630.72;5090047;28;20115;-74
2021/12/11 06:18:47;;;;;;;7.28;5.28;;;;;;;-0.82;100.00;95629.78;5090088;28;20047;-74
2021/12/11 06:21:14;;;;;;;10.77;6.07;;;;;;;-0.83;100.00;95628.13;5090026;28;20047;-74
2021/12/11 06:23:40;;;;;;;10.20;8.00;;;;;;;-0.83;100.00;95641.03;5090031;28;20040;-74
2021/12/11 06:26:05;;;;;;;9.88;6.85;;;;;;;-0.84;100.00;95644.53;5072274;28;20047;-74
2021/12/11 06:28:32;;;;;;;8.35;5.95;;;;;;;-0.85;100.00;95648.03;5090015;28;20024;-74
2021/12/11 06:30:58;;;;;;;8.82;7.13;;;;;;;-0.86;100.00;95649.81;5090030;28;20051;-75
2021/12/11 06:33:27;;;;;;;9.77;7.80;;;;;;;-0.85;100.00;95648.03;5089287;28;20029;-74
2021/12/11 06:36:13;;;;;;;7.85;6.85;;;;;;;-0.85;100.00;95655.78;5090170;28;20032;-74
2021/12/11 06:38:39;;;;;;;8.88;6.85;;;;;;;-0.87;100.00;95654.13;5089919;28;20036;-73
2021/12/11 06:41:07;;;;;;;9.00;7.07;;;;;;;-0.85;100.00;95659.22;5072144;28;20036;-73
2021/12/11 06:43:33;;;;;;;7.22;6.47;;;;;;;-0.87;100.00;95659.28;5090042;28;20036;-74
2021/12/11 06:46:00;;;;;;;7.95;6.22;;;;;;;-0.92;100.00;95666.44;5089869;28;20040;-74
2021/12/11 06:48:25;;;;;;;8.50;7.60;;;;;;;-0.92;100.00;95666.44;5089508;28;20052;-74
2021/12/11 06:50:52;;;;;;;7.50;6.50;;;;;;;-0.92;100.00;95676.78;5089982;28;20046;-74
2021/12/11 06:53:40;;;;;;;7.50;6.72;;;;;;;-0.91;100.00;95669.84;5089860;28;20492;-73
2021/12/11 06:56:08;;;;;;;20.15;15.07;;;;;;;-0.68;100.00;95670.50;5090237;28;20410;-73
2021/12/11 06:58:33;;;;;;;29.05;20.65;;;;;;;-0.76;100.00;95678.66;5089706;28;20067;-73
2021/12/11 07:01:00;;;;;;;36.40;26.10;;;;;;;-0.79;100.00;95686.53;5089683;28;20119;-73
2021/12/11 07:03:26;;;;;;;23.55;17.20;;;;;;;-0.81;100.00;95691.78;5091990;28;20060;-73
2021/12/11 07:05:52;;;;;;;14.88;13.30;;;;;;;-0.83;100.00;95695.34;5093856;28;20024;-73
2021/12/11 07:08:18;;;;;;;17.88;13.77;;;;;;;-0.84;100.00;95699.69;5093432;28;20051;-73
2021/12/11 07:10:45;;;;;;;19.05;15.77;;;;;;;-0.81;100.00;95706.44;5093321;28;20384;-73
2021/12/11 07:13:12;;;;;;;15.40;13.73;;;;;;;-0.83;100.00;95709.13;5093485;28;20524;-73
2021/12/11 07:15:38;;;;;;;18.77;16.48;;;;;;;-0.83;100.00;95713.44;5093739;28;20042;-73
2021/12/11 07:18:04;;;;;;;19.27;14.77;;;;;;;-0.82;100.00;95710.78;5093605;28;20399;-73
2021/12/11 07:20:30;;;;;;;17.80;15.50;;;;;;;-0.82;100.00;95720.28;5093042;28;20146;-73
2021/12/11 07:22:56;;;;;;;21.67;17.95;;;;;;;-0.82;100.00;95722.84;5093396;28;20103;-73
2021/12/11 07:25:45;;;;;;;17.27;14.23;;;;;;;-0.81;100.00;95725.38;5093298;28;20056;-73
2021/12/11 07:28:11;;;;;;;14.20;11.80;;;;;;;-0.77;100.00;95723.50;5092956;28;20535;-73
2021/12/11 07:30:40;;;;;;;18.10;14.05;;;;;;;-0.77;100.00;95729.50;5093292;28;20119;-73
2021/12/11 07:33:07;;;;;;;12.55;10.98;;;;;;;-0.78;100.00;95734.72;5092255;28;20111;-73
2021/12/11 07:35:34;;;;;;;22.65;14.85;;;;;;;-0.74;100.00;95741.47;5092652;28;20509;-68
2021/12/11 07:38:00;;;;;;;18.98;13.57;;;;;;;-0.73;100.00;95737.97;5092054;28;20039;-72
2021/12/11 07:40:30;;;;;;;16.85;12.52;;;;;;;-0.74;100.00;95744.03;5091299;28;20033;-67
2021/12/11 07:42:56;;;;;;;24.42;16.25;;;;;;;-0.73;100.00;95745.72;5088859;28;20058;-68
2021/12/11 07:45:24;;;;;;;27.67;20.35;;;;;;;-0.74;100.00;95744.03;5087249;28;20085;-68
2021/12/11 07:47:49;;;;;;;20.50;15.90;;;;;;;-0.73;100.00;95743.13;5089957;28;20048;-67
2021/12/11 07:50:15;;;;;;;23.98;16.48;;;;;;;-0.69;100.00;95749.84;5088087;28;20047;-67
2021/12/11 07:52:40;;;;;;;23.85;16.27;;;;;;;-0.67;100.00;95762.66;5089806;28;20052;-67
2021/12/11 07:55:06;;;;;;;22.50;16.20;;;;;;;-0.67;100.00;95760.94;5089749;28;20044;-68
2021/12/11 07:57:32;;;;;;;30.25;18.42;;;;;;;-0.66;100.00;95765.19;5090567;28;20036;-66
2021/12/11 07:59:58;;;;;;;29.20;19.25;;;;;;;-0.62;100.00;95766.72;5089657;28;20086;-70
2021/12/11 08:02:23;;;;;;;32.20;17.35;;;;;;;-0.60;100.00;95762.31;5088629;28;20036;-67
2021/12/11 08:04:49;;;;;;;30.23;17.63;;;;;;;-0.56;100.00;95765.63;5085724;28;20040;-66
2021/12/11 08:07:14;;;;;;;21.77;16.23;;;;;;;-0.55;100.00;95761.25;5089747;28;20555;-65
2021/12/11 08:09:40;;;;;;;21.05;16.92;;;;;;;-0.53;100.00;95764.63;5087996;28;20097;-66
2021/12/11 08:12:06;;;;;;;23.83;16.60;;;;;;;-0.52;100.00;95768.91;5088719;28;20048;-66
2021/12/11 08:14:32;;;;;;;27.23;18.90;;;;;;;-0.53;100.00;95775.81;5088407;28;20430;-66
2021/12/11 08:16:59;;;;;;;32.53;22.02;;;;;;;-0.48;100.00;95783.38;5088396;28;20609;-65
2021/12/11 08:19:28;;;;;;;26.98;21.90;;;;;;;-0.41;100.00;95776.97;5087488;28;20071;-64
2021/12/11 08:21:56;;;;;;;28.77;21.63;;;;;;;-0.31;100.00;95777.38;5087847;28;20517;-65
2021/12/11 08:24:23;;;;;;;24.15;19.88;;;;;;;-0.23;100.00;95787.38;5084958;28;20048;-67
2021/12/11 08:26:51;;;;;;;21.63;14.85;;;;;;;-0.15;100.00;95811.13;5083457;28;20040;-68
2021/12/11 08:29:18;;;;;;;15.18;11.00;;;;;;;-0.08;100.00;95796.16;5087235;28;20032;-67
2021/12/11 08:31:46;;;;;;;16.85;12.43;;;;;;;-0.07;100.00;95811.63;5087440;28;20086;-66
2021/12/11 08:34:12;;;;;;;21.83;15.25;;;;;;;-0.05;100.00;95816.69;5087186;28;20037;-66
2021/12/11 08:36:39;;;;;;;25.15;16.90;;;;;;;-0.06;100.00;95822.78;5087104;28;20036;-67
2021/12/11 08:39:08;;;;;;;18.77;15.27;;;;;;;-0.07;100.00;95821.13;5088404;28;20043;-67
2021/12/11 08:41:34;;;;;;;16.83;15.02;;;;;;;-0.10;100.00;95832.47;5087927;28;20035;-68
2021/12/11 08:44:06;;;;;;;18.85;14.77;;;;;;;-0.12;100.00;95831.69;5086342;28;20093;-67
2021/12/11 08:46:34;;;;;;;20.45;13.88;;;;;;;-0.11;100.00;95843.75;5087227;28;20024;-68
2021/12/11 08:49:03;;;;;;;16.90;15.02;;;;;;;-0.12;100.00;95849.78;5085522;28;20076;-67
2021/12/11 08:51:43;;;;;;;21.10;14.90;;;;;;;-0.07;100.00;95839.22;5083687;28;20063;-67
2021/12/11 08:54:10;;;;;;;20.25;12.98;;;;;;;-0.09;100.00;95857.44;5086399;28;20089;-66
2021/12/11 08:56:39;;;;;;;17.90;14.00;;;;;;;-0.05;100.00;95863.28;5084445;28;20032;-69
2021/12/11 08:59:07;;;;;;;20.52;16.42;;;;;;;0.04;100.00;95852.50;5069482;28;20032;-65
2021/12/11 09:01:53;;;;;;;22.88;16.77;;;;;;;0.03;100.00;95871.56;5084245;28;20510;-65
2021/12/11 09:04:30;;;;;;;18.77;15.85;;;;;;;0.03;100.00;95870.69;5087829;28;20043;-66
2021/12/11 09:07:01;;;;;;;25.55;20.90;;;;;;;0.02;100.00;95890.59;5085174;28;20060;-67
2021/12/11 09:09:41;;;;;;;15.70;13.48;;;;;;;0.01;100.00;95873.38;5085090;28;20093;-66
2021/12/11 09:12:36;;;;;;;14.25;12.35;;;;;;;-0.02;100.00;95887.28;5087715;28;20035;-64
2021/12/11 09:15:11;;;;;;;15.43;12.43;;;;;;;0.01;100.00;95875.13;5066341;28;20052;-67
2021/12/11 09:17:55;;;;;;;14.70;13.07;;;;;;;0.00;100.00;95887.22;5085059;28;20047;-64
2021/12/11 09:20:37;;;;;;;16.25;12.63;;;;;;;0.02;100.00;95892.31;5089126;28;20044;-64
2021/12/11 09:23:17;;;;;;;15.80;12.93;;;;;;;0.06;100.00;95893.84;5086566;28;20055;-64
2021/12/11 09:25:48;;;;;;;17.60;14.85;;;;;;;0.08;100.00;95898.06;5086271;28;20039;-64
2021/12/11 09:28:33;;;;;;;18.90;15.75;;;;;;;0.10;100.00;95898.81;5087163;28;20043;-66
2021/12/11 09:31:23;;;;;;;29.30;20.47;;;;;;;0.13;100.00;95903.03;5085497;28;20035;-66
2021/12/11 09:33:58;;;;;;;25.92;20.95;;;;;;;0.14;100.00;95909.88;5086723;28;20047;-64
2021/12/11 09:36:32;;;;;;;32.10;22.40;;;;;;;0.16;100.00;95902.88;5088387;28;20400;-66
2021/12/11 09:39:09;;;;;;;35.85;24.92;;;;;;;0.18;100.00;95911.41;5088008;28;20277;-66
2021/12/11 09:41:35;;;;;;;36.13;24.83;;;;;;;0.19;100.00;95910.50;5086696;28;21080;-66
2021/12/11 09:44:17;;;;;;;41.13;29.45;;;;;;;0.22;100.00;95907.75;5086042;28;20047;-65
2021/12/11 09:46:59;;;;;;;33.42;24.25;;;;;;;0.25;100.00;95915.38;5087200;28;20036;-67
2021/12/11 09:49:29;;;;;;;25.38;19.58;;;;;;;0.31;100.00;95932.38;5086641;28;20043;-66
2021/12/11 09:52:02;;;;;;;25.10;19.40;;;;;;;0.36;100.00;95937.34;5085057;28;20043;-68
2021/12/11 09:54:29;;;;;;;22.45;17.33;;;;;;;0.34;100.00;95941.75;5075926;28;20157;-67
2021/12/11 09:57:03;;;;;;;17.88;14.90;;;;;;;0.31;100.00;95941.88;5087287;28;20102;-66
2021/12/11 09:59:31;;;;;;;19.35;14.25;;;;;;;0.30;100.00;95937.63;5084364;28;20062;-74
2021/12/11 10:02:00;;;;;;;19.02;15.80;;;;;;;0.31;100.00;95941.88;5087468;28;20039;-73
2021/12/11 10:04:32;;;;;;;20.27;16.77;;;;;;;0.34;100.00;95941.75;5087539;28;20063;-70
2021/12/11 10:09:49;;;;;;;20.17;16.90;;;;;;;0.47;100.00;95942.84;5085782;28;20106;-67
2021/12/11 10:12:21;;;;;;;17.58;15.73;;;;;;;0.49;100.00;95946.19;5088832;28;20038;-68
2021/12/11 10:15:04;;;;;;;18.38;14.60;;;;;;;0.50;100.00;95950.47;5088092;28;20089;-68
2021/12/11 10:17:37;;;;;;;18.08;15.63;;;;;;;0.48;100.00;95956.66;5086207;28;20503;-68
2021/12/11 10:20:09;;;;;;;18.98;15.55;;;;;;;0.48;100.00;95960.06;5088802;28;20044;-68
2021/12/11 10:22:37;;;;;;;20.40;16.92;;;;;;;0.49;100.00;95956.56;5087476;28;20039;-68
2021/12/11 10:25:07;;;;;;;38.22;25.65;;;;;;;0.53;100.00;95957.25;5082996;28;20118;-68
2021/12/11 10:27:33;;;;;;;36.95;25.67;;;;;;;0.57;100.00;95953.59;5087643;28;20116;-68
2021/12/11 10:30:00;;;;;;;45.40;34.40;;;;;;;0.62;100.00;95955.97;5087792;28;20119;-68
2021/12/11 10:32:30;;;;;;;35.80;29.58;;;;;;;0.58;100.00;95968.22;5084589;28;20561;-68
2021/12/11 10:35:00;;;;;;;42.75;32.53;;;;;;;0.58;100.00;95955.28;5085164;28;20034;-69
2021/12/11 10:37:33;;;;;;;34.33;26.63;;;;;;;0.61;100.00;95954.31;5088716;28;20044;-67
2021/12/11 10:40:03;;;;;;;33.67;24.88;;;;;;;0.62;100.00;95964.56;5089308;28;20090;-66
2021/12/11 10:42:29;;;;;;;33.67;23.35;;;;;;;0.60;100.00;95956.03;5090926;28;20032;-67
2021/12/11 10:44:58;;;;;;;31.73;24.83;;;;;;;0.63;100.00;95961.06;5093104;28;20047;-67
2021/12/11 10:47:33;;;;;;;33.25;23.75;;;;;;;0.64;100.00;95951.56;5090520;28;20043;-67
2021/12/11 10:50:02;;;;;;;29.40;22.13;;;;;;;0.67;100.00;95957.44;5092302;28;20059;-67
2021/12/11 10:52:30;;;;;;;25.45;20.10;;;;;;;0.71;100.00;95963.28;5091885;28;20038;-67
2021/12/11 10:55:00;;;;;;;21.98;18.13;;;;;;;0.78;100.00;95969.03;5092764;28;20040;-67
2021/12/11 10:57:28;;;;;;;23.50;19.58;;;;;;;0.83;100.00;95970.47;5090218;28;20027;-66
2021/12/11 10:59:56;;;;;;;23.08;19.42;;;;;;;0.90;100.00;95967.56;5089740;28;20112;-67
2021/12/11 11:02:30;;;;;;;24.73;21.50;;;;;;;0.90;100.00;95970.16;5091413;28;20035;-69
2021/12/11 11:04:57;;;;;;;23.88;18.98;;;;;;;0.91;100.00;95977.88;5090488;28;20047;-66
2021/12/11 11:07:25;;;;;;;25.60;17.67;;;;;;;0.97;100.00;95992.28;5092844;28;20063;-66
2021/12/11 11:09:51;;;;;;;16.73;14.35;;;;;;;0.98;100.00;95983.59;5085167;28;20115;-67
2021/12/11 11:12:20;;;;;;;15.52;11.80;;;;;;;0.97;100.00;95984.50;5090857;28;20115;-67
2021/12/11 11:14:48;;;;;;;15.10;11.32;;;;;;;0.97;100.00;95979.31;5092988;28;20138;-67
2021/12/11 11:17:18;;;;;;;17.55;12.82;;;;;;;1.06;100.00;95985.81;5090975;28;20038;-68
2021/12/11 11:19:46;;;;;;;31.73;23.90;;;;;;;1.10;100.00;95987.31;5091041;28;20883;-67
2021/12/11 11:22:15;;;;;;;31.08;19.55;;;;;;;1.13;100.00;95985.44;5087088;28;20040;-67
2021/12/11 11:24:47;;;;;;;25.58;15.70;;;;;;;1.20;100.00;95987.69;5087616;28;20067;-67
2021/12/11 11:27:14;;;;;;;13.23;10.18;;;;;;;1.21;100.00;95984.19;5068014;28;20043;-69
2021/12/11 11:29:42;;;;;;;20.25;15.75;;;;;;;1.18;100.00;95994.72;5091860;28;20090;-70
2021/12/11 11:32:16;;;;;;;12.30;8.05;;;;;;;1.17;100.00;95993.03;5092311;28;20044;-66
2021/12/11 11:34:42;;;;;;;9.98;7.68;;;;;;;1.14;100.00;95994.06;5090901;28;20064;-66
2021/12/11 11:37:13;;;;;;;9.57;8.15;;;;;;;1.13;100.00;95987.19;5090594;28;20063;-66
2021/12/11 11:39:39;;;;;;;13.30;7.13;;;;;;;1.14;100.00;95989.69;5090111;28;20032;-69
2021/12/11 11:42:12;;;;;;;14.38;8.82;;;;;;;1.21;100.00;95989.38;5089603;28;20059;-66
2021/12/11 11:44:40;;;;;;;17.73;13.77;;;;;;;1.26;100.00;95982.22;5091253;28;20521;-66
2021/12/11 11:47:07;;;;;;;19.88;17.65;;;;;;;1.31;100.00;95976.78;5090057;28;20032;-67
2021/12/11 11:49:33;;;;;;;19.42;16.73;;;;;;;1.33;100.00;95983.59;5087006;28;20507;-66
2021/12/11 11:52:05;;;;;;;18.63;15.90;;;;;;;1.34;100.00;95977.47;5072455;28;20421;-67
2021/12/11 11:54:32;;;;;;;26.50;21.95;;;;;;;1.38;100.00;95985.94;5075073;28;20067;-68
2021/12/11 11:57:06;;;;;;;14.00;10.80;;;;;;;1.49;100.00;95988.00;5090167;28;20032;-67